sensor_id;sensor_type;location;lat;lon;timestamp;P1;durP1;ratioP1;P2;durP2;ratioP2
11845;SDS011;5982;37.494;-8.758;2022-10-13T00:01:10;694.60;;;643.33;;
11845;SDS011;5982;37.494;-8.758;2022-10-13T00:03:40;683.25;;;631.42;;
11845;SDS011;5982;37.494;-8.758;2022-10-13T00:06:10;689.90;;;637.92;;
11845;SDS011;5982;37.494;-8.758;2022-10-13T00:08:40;681.50;;;629.83;;
11845;SDS011;5982;37.494;-8.758;2022-10-13T00:11:09;681.20;;;628.47;;
11845;SDS011;5982;37.494;-8.758;2022-10-13T00:13:39;687.42;;;633.92;;
11845;SDS011;5982;37.494;-8.758;2022-10-13T00:16:10;692.22;;;638.33;;
11845;SDS011;5982;37.494;-8.758;2022-10-13T00:18:41;692.25;;;639.78;;
11845;SDS011;5982;37.494;-8.758;2022-10-13T00:21:10;699.75;;;647.13;;
11845;SDS011;5982;37.494;-8.758;2022-10-13T00:23:40;689.70;;;637.25;;
11845;SDS011;5982;37.494;-8.758;2022-10-13T00:26:09;696.88;;;643.78;;
11845;SDS011;5982;37.494;-8.758;2022-10-13T00:28:39;694.15;;;642.30;;
11845;SDS011;5982;37.494;-8.758;2022-10-13T00:31:15;691.13;;;638.73;;
11845;SDS011;5982;37.494;-8.758;2022-10-13T00:33:45;703.47;;;651.07;;
11845;SDS011;5982;37.494;-8.758;2022-10-13T00:36:13;696.20;;;643.67;;
11845;SDS011;5982;37.494;-8.758;2022-10-13T00:38:42;694.67;;;642.30;;
11845;SDS011;5982;37.494;-8.758;2022-10-13T00:41:10;706.92;;;654.03;;
11845;SDS011;5982;37.494;-8.758;2022-10-13T00:43:49;699.85;;;647.63;;
11845;SDS011;5982;37.494;-8.758;2022-10-13T00:46:26;700.78;;;648.33;;
11845;SDS011;5982;37.494;-8.758;2022-10-13T00:48:57;700.53;;;648.60;;
11845;SDS011;5982;37.494;-8.758;2022-10-13T00:51:38;698.11;;;645.97;;
11845;SDS011;5982;37.494;-8.758;2022-10-13T00:54:12;690.07;;;638.93;;
11845;SDS011;5982;37.494;-8.758;2022-10-13T00:56:49;707.10;;;654.80;;
11845;SDS011;5982;37.494;-8.758;2022-10-13T00:59:20;697.17;;;644.97;;
11845;SDS011;5982;37.494;-8.758;2022-10-13T01:01:54;692.23;;;640.47;;
11845;SDS011;5982;37.494;-8.758;2022-10-13T01:04:26;697.00;;;644.97;;
11845;SDS011;5982;37.494;-8.758;2022-10-13T01:06:59;695.97;;;644.40;;
11845;SDS011;5982;37.494;-8.758;2022-10-13T01:09:29;702.95;;;651.10;;
11845;SDS011;5982;37.494;-8.758;2022-10-13T01:12:04;699.67;;;648.17;;
11845;SDS011;5982;37.494;-8.758;2022-10-13T01:14:45;700.17;;;649.05;;
11845;SDS011;5982;37.494;-8.758;2022-10-13T01:17:24;696.45;;;645.55;;
11845;SDS011;5982;37.494;-8.758;2022-10-13T01:20:08;691.92;;;641.05;;
11845;SDS011;5982;37.494;-8.758;2022-10-13T01:23:21;699.22;;;648.08;;
11845;SDS011;5982;37.494;-8.758;2022-10-13T01:26:12;695.78;;;645.08;;
11845;SDS011;5982;37.494;-8.758;2022-10-13T01:29:10;693.30;;;642.88;;
11845;SDS011;5982;37.494;-8.758;2022-10-13T01:31:57;709.80;;;659.03;;
11845;SDS011;5982;37.494;-8.758;2022-10-13T01:34:33;695.80;;;645.27;;
11845;SDS011;5982;37.494;-8.758;2022-10-13T01:37:10;707.38;;;656.88;;
11845;SDS011;5982;37.494;-8.758;2022-10-13T01:39:46;707.65;;;657.58;;
11845;SDS011;5982;37.494;-8.758;2022-10-13T01:42:21;710.42;;;659.85;;
11845;SDS011;5982;37.494;-8.758;2022-10-13T01:44:57;712.67;;;662.20;;
11845;SDS011;5982;37.494;-8.758;2022-10-13T01:47:31;719.35;;;668.88;;
11845;SDS011;5982;37.494;-8.758;2022-10-13T01:50:02;734.20;;;683.42;;
11845;SDS011;5982;37.494;-8.758;2022-10-13T01:52:34;751.30;;;699.95;;
11845;SDS011;5982;37.494;-8.758;2022-10-13T01:55:05;744.25;;;693.25;;
11845;SDS011;5982;37.494;-8.758;2022-10-13T01:57:36;751.67;;;699.90;;
11845;SDS011;5982;37.494;-8.758;2022-10-13T02:00:08;744.22;;;693.03;;
11845;SDS011;5982;37.494;-8.758;2022-10-13T02:02:42;733.40;;;682.40;;
11845;SDS011;5982;37.494;-8.758;2022-10-13T02:05:22;738.30;;;687.03;;
11845;SDS011;5982;37.494;-8.758;2022-10-13T02:07:58;737.88;;;686.85;;
11845;SDS011;5982;37.494;-8.758;2022-10-13T02:10:31;742.13;;;691.30;;
11845;SDS011;5982;37.494;-8.758;2022-10-13T02:13:06;754.40;;;703.22;;
11845;SDS011;5982;37.494;-8.758;2022-10-13T02:15:40;750.00;;;698.53;;
11845;SDS011;5982;37.494;-8.758;2022-10-13T02:18:16;758.80;;;707.25;;
11845;SDS011;5982;37.494;-8.758;2022-10-13T02:20:48;754.17;;;702.93;;
11845;SDS011;5982;37.494;-8.758;2022-10-13T02:23:17;746.40;;;695.63;;
11845;SDS011;5982;37.494;-8.758;2022-10-13T02:25:45;747.28;;;696.28;;
11845;SDS011;5982;37.494;-8.758;2022-10-13T02:28:15;742.77;;;691.43;;
11845;SDS011;5982;37.494;-8.758;2022-10-13T02:30:44;738.17;;;687.00;;
11845;SDS011;5982;37.494;-8.758;2022-10-13T02:33:15;734.83;;;683.50;;
11845;SDS011;5982;37.494;-8.758;2022-10-13T02:35:43;732.20;;;680.83;;
11845;SDS011;5982;37.494;-8.758;2022-10-13T02:38:11;727.97;;;677.08;;
11845;SDS011;5982;37.494;-8.758;2022-10-13T02:40:40;716.20;;;665.78;;
11845;SDS011;5982;37.494;-8.758;2022-10-13T02:43:08;715.20;;;664.50;;
11845;SDS011;5982;37.494;-8.758;2022-10-13T02:45:36;718.10;;;667.53;;
11845;SDS011;5982;37.494;-8.758;2022-10-13T02:48:04;716.53;;;666.30;;
11845;SDS011;5982;37.494;-8.758;2022-10-13T02:50:34;716.22;;;665.72;;
11845;SDS011;5982;37.494;-8.758;2022-10-13T02:53:02;716.05;;;665.35;;
11845;SDS011;5982;37.494;-8.758;2022-10-13T02:55:31;720.30;;;669.42;;
11845;SDS011;5982;37.494;-8.758;2022-10-13T02:57:59;723.10;;;672.67;;
11845;SDS011;5982;37.494;-8.758;2022-10-13T03:00:27;725.00;;;674.40;;
11845;SDS011;5982;37.494;-8.758;2022-10-13T03:02:55;719.10;;;668.63;;
11845;SDS011;5982;37.494;-8.758;2022-10-13T03:05:23;725.28;;;674.28;;
11845;SDS011;5982;37.494;-8.758;2022-10-13T03:07:53;726.08;;;675.33;;
11845;SDS011;5982;37.494;-8.758;2022-10-13T03:10:21;725.90;;;674.58;;
11845;SDS011;5982;37.494;-8.758;2022-10-13T03:12:50;718.72;;;668.40;;
11845;SDS011;5982;37.494;-8.758;2022-10-13T03:15:20;731.42;;;680.75;;
11845;SDS011;5982;37.494;-8.758;2022-10-13T03:17:48;729.90;;;679.25;;
11845;SDS011;5982;37.494;-8.758;2022-10-13T03:20:16;741.53;;;690.50;;
11845;SDS011;5982;37.494;-8.758;2022-10-13T03:22:45;745.55;;;694.88;;
11845;SDS011;5982;37.494;-8.758;2022-10-13T03:25:14;746.85;;;695.80;;
11845;SDS011;5982;37.494;-8.758;2022-10-13T03:27:43;746.10;;;695.00;;
11845;SDS011;5982;37.494;-8.758;2022-10-13T03:30:11;744.55;;;693.33;;
11845;SDS011;5982;37.494;-8.758;2022-10-13T03:32:39;733.75;;;682.83;;
11845;SDS011;5982;37.494;-8.758;2022-10-13T03:35:08;725.72;;;674.95;;
11845;SDS011;5982;37.494;-8.758;2022-10-13T03:37:36;721.25;;;670.40;;
11845;SDS011;5982;37.494;-8.758;2022-10-13T03:40:04;714.17;;;662.93;;
11845;SDS011;5982;37.494;-8.758;2022-10-13T03:42:36;710.60;;;659.40;;
11845;SDS011;5982;37.494;-8.758;2022-10-13T03:45:05;711.55;;;659.47;;
11845;SDS011;5982;37.494;-8.758;2022-10-13T03:47:35;705.42;;;652.75;;
11845;SDS011;5982;37.494;-8.758;2022-10-13T03:50:04;707.72;;;654.65;;
11845;SDS011;5982;37.494;-8.758;2022-10-13T03:52:33;706.03;;;652.78;;
11845;SDS011;5982;37.494;-8.758;2022-10-13T03:55:01;708.63;;;655.58;;
11845;SDS011;5982;37.494;-8.758;2022-10-13T03:57:30;697.90;;;645.35;;
11845;SDS011;5982;37.494;-8.758;2022-10-13T04:00:00;695.50;;;643.17;;
11845;SDS011;5982;37.494;-8.758;2022-10-13T04:02:28;692.50;;;639.60;;
11845;SDS011;5982;37.494;-8.758;2022-10-13T04:04:56;692.53;;;640.47;;
11845;SDS011;5982;37.494;-8.758;2022-10-13T04:07:24;697.60;;;645.73;;
11845;SDS011;5982;37.494;-8.758;2022-10-13T04:09:53;690.35;;;637.75;;
11845;SDS011;5982;37.494;-8.758;2022-10-13T04:12:21;690.03;;;638.80;;
11845;SDS011;5982;37.494;-8.758;2022-10-13T04:14:49;689.17;;;637.92;;
11845;SDS011;5982;37.494;-8.758;2022-10-13T04:17:19;683.47;;;631.67;;
11845;SDS011;5982;37.494;-8.758;2022-10-13T04:19:47;685.90;;;634.83;;
11845;SDS011;5982;37.494;-8.758;2022-10-13T04:22:15;679.13;;;628.37;;
11845;SDS011;5982;37.494;-8.758;2022-10-13T04:24:43;666.75;;;616.25;;
11845;SDS011;5982;37.494;-8.758;2022-10-13T04:27:12;661.95;;;611.80;;
11845;SDS011;5982;37.494;-8.758;2022-10-13T04:29:41;665.25;;;614.70;;
11845;SDS011;5982;37.494;-8.758;2022-10-13T04:32:09;662.28;;;611.90;;
11845;SDS011;5982;37.494;-8.758;2022-10-13T04:34:39;664.38;;;613.67;;
11845;SDS011;5982;37.494;-8.758;2022-10-13T04:37:07;661.08;;;610.70;;
11845;SDS011;5982;37.494;-8.758;2022-10-13T04:39:35;657.78;;;608.08;;
11845;SDS011;5982;37.494;-8.758;2022-10-13T04:42:04;656.80;;;606.60;;
11845;SDS011;5982;37.494;-8.758;2022-10-13T04:44:32;654.88;;;605.03;;
11845;SDS011;5982;37.494;-8.758;2022-10-13T04:47:00;655.13;;;604.97;;
11845;SDS011;5982;37.494;-8.758;2022-10-13T04:49:28;659.60;;;609.90;;
11845;SDS011;5982;37.494;-8.758;2022-10-13T04:51:58;654.45;;;604.90;;
11845;SDS011;5982;37.494;-8.758;2022-10-13T04:54:27;653.37;;;604.10;;
11845;SDS011;5982;37.494;-8.758;2022-10-13T04:56:55;658.58;;;608.85;;
11845;SDS011;5982;37.494;-8.758;2022-10-13T04:59:23;652.00;;;602.70;;
11845;SDS011;5982;37.494;-8.758;2022-10-13T05:01:52;652.03;;;602.78;;
11845;SDS011;5982;37.494;-8.758;2022-10-13T05:04:20;650.00;;;600.88;;
11845;SDS011;5982;37.494;-8.758;2022-10-13T05:06:48;666.67;;;616.73;;
11845;SDS011;5982;37.494;-8.758;2022-10-13T05:09:18;682.10;;;632.25;;
11845;SDS011;5982;37.494;-8.758;2022-10-13T05:11:46;676.45;;;626.80;;
11845;SDS011;5982;37.494;-8.758;2022-10-13T05:14:15;679.05;;;629.42;;
11845;SDS011;5982;37.494;-8.758;2022-10-13T05:16:43;687.83;;;637.83;;
11845;SDS011;5982;37.494;-8.758;2022-10-13T05:19:11;686.38;;;636.40;;
11845;SDS011;5982;37.494;-8.758;2022-10-13T05:21:39;684.97;;;635.08;;
11845;SDS011;5982;37.494;-8.758;2022-10-13T05:24:08;685.80;;;636.13;;
11845;SDS011;5982;37.494;-8.758;2022-10-13T05:26:39;686.17;;;636.35;;
11845;SDS011;5982;37.494;-8.758;2022-10-13T05:29:07;688.67;;;638.97;;
11845;SDS011;5982;37.494;-8.758;2022-10-13T05:31:36;707.72;;;657.55;;
11845;SDS011;5982;37.494;-8.758;2022-10-13T05:34:04;706.42;;;655.92;;
11845;SDS011;5982;37.494;-8.758;2022-10-13T05:36:33;713.15;;;662.92;;
11845;SDS011;5982;37.494;-8.758;2022-10-13T05:39:02;723.03;;;672.40;;
11845;SDS011;5982;37.494;-8.758;2022-10-13T05:41:32;728.85;;;678.05;;
11845;SDS011;5982;37.494;-8.758;2022-10-13T05:44:03;720.58;;;670.20;;
11845;SDS011;5982;37.494;-8.758;2022-10-13T05:46:33;720.97;;;670.58;;
11845;SDS011;5982;37.494;-8.758;2022-10-13T05:49:02;706.90;;;657.00;;
11845;SDS011;5982;37.494;-8.758;2022-10-13T05:51:31;705.33;;;655.08;;
11845;SDS011;5982;37.494;-8.758;2022-10-13T05:54:03;701.85;;;651.95;;
11845;SDS011;5982;37.494;-8.758;2022-10-13T05:56:36;696.50;;;646.70;;
11845;SDS011;5982;37.494;-8.758;2022-10-13T05:59:09;687.40;;;637.38;;
11845;SDS011;5982;37.494;-8.758;2022-10-13T06:01:42;687.77;;;637.97;;
11845;SDS011;5982;37.494;-8.758;2022-10-13T06:04:11;685.92;;;635.97;;
11845;SDS011;5982;37.494;-8.758;2022-10-13T06:06:44;685.30;;;635.47;;
11845;SDS011;5982;37.494;-8.758;2022-10-13T06:09:14;685.10;;;634.25;;
11845;SDS011;5982;37.494;-8.758;2022-10-13T06:11:43;683.00;;;632.83;;
11845;SDS011;5982;37.494;-8.758;2022-10-13T06:14:13;671.05;;;621.00;;
11845;SDS011;5982;37.494;-8.758;2022-10-13T06:16:41;673.83;;;624.42;;
11845;SDS011;5982;37.494;-8.758;2022-10-13T06:19:09;675.30;;;625.55;;
11845;SDS011;5982;37.494;-8.758;2022-10-13T06:21:37;664.08;;;614.80;;
11845;SDS011;5982;37.494;-8.758;2022-10-13T06:24:05;666.50;;;617.20;;
11845;SDS011;5982;37.494;-8.758;2022-10-13T06:26:34;660.58;;;611.60;;
11845;SDS011;5982;37.494;-8.758;2022-10-13T06:29:02;661.17;;;611.88;;
11845;SDS011;5982;37.494;-8.758;2022-10-13T06:31:32;658.00;;;608.42;;
11845;SDS011;5982;37.494;-8.758;2022-10-13T06:34:00;649.23;;;600.33;;
11845;SDS011;5982;37.494;-8.758;2022-10-13T06:36:28;647.60;;;598.75;;
11845;SDS011;5982;37.494;-8.758;2022-10-13T06:38:56;640.15;;;591.30;;
11845;SDS011;5982;37.494;-8.758;2022-10-13T06:41:25;641.45;;;592.83;;
11845;SDS011;5982;37.494;-8.758;2022-10-13T06:43:53;644.25;;;595.25;;
11845;SDS011;5982;37.494;-8.758;2022-10-13T06:46:21;650.55;;;601.47;;
11845;SDS011;5982;37.494;-8.758;2022-10-13T06:48:51;649.00;;;599.80;;
11845;SDS011;5982;37.494;-8.758;2022-10-13T06:51:19;650.90;;;601.70;;
11845;SDS011;5982;37.494;-8.758;2022-10-13T06:53:47;642.97;;;594.03;;
11845;SDS011;5982;37.494;-8.758;2022-10-13T06:56:15;647.53;;;598.17;;
11845;SDS011;5982;37.494;-8.758;2022-10-13T06:58:43;639.90;;;591.15;;
11845;SDS011;5982;37.494;-8.758;2022-10-13T07:01:12;634.50;;;585.70;;
11845;SDS011;5982;37.494;-8.758;2022-10-13T07:03:41;642.30;;;593.15;;
11845;SDS011;5982;37.494;-8.758;2022-10-13T07:06:10;637.35;;;588.42;;
11845;SDS011;5982;37.494;-8.758;2022-10-13T07:08:39;647.30;;;598.20;;
11845;SDS011;5982;37.494;-8.758;2022-10-13T07:11:07;649.35;;;600.17;;
11845;SDS011;5982;37.494;-8.758;2022-10-13T07:13:38;668.85;;;619.55;;
11845;SDS011;5982;37.494;-8.758;2022-10-13T07:16:07;696.03;;;646.30;;
11845;SDS011;5982;37.494;-8.758;2022-10-13T07:18:35;716.67;;;666.50;;
11845;SDS011;5982;37.494;-8.758;2022-10-13T07:21:04;723.80;;;673.40;;
11845;SDS011;5982;37.494;-8.758;2022-10-13T07:23:33;743.83;;;692.58;;
11845;SDS011;5982;37.494;-8.758;2022-10-13T07:26:05;751.83;;;700.83;;
11845;SDS011;5982;37.494;-8.758;2022-10-13T07:28:35;758.30;;;707.22;;
11845;SDS011;5982;37.494;-8.758;2022-10-13T07:31:06;771.40;;;719.97;;
11845;SDS011;5982;37.494;-8.758;2022-10-13T07:33:36;787.85;;;735.85;;
11845;SDS011;5982;37.494;-8.758;2022-10-13T07:36:05;793.63;;;741.85;;
11845;SDS011;5982;37.494;-8.758;2022-10-13T07:38:36;794.45;;;742.45;;
11845;SDS011;5982;37.494;-8.758;2022-10-13T07:41:05;802.58;;;750.63;;
11845;SDS011;5982;37.494;-8.758;2022-10-13T07:43:36;801.03;;;749.08;;
11845;SDS011;5982;37.494;-8.758;2022-10-13T07:46:05;826.97;;;774.22;;
11845;SDS011;5982;37.494;-8.758;2022-10-13T07:48:33;830.10;;;777.30;;
11845;SDS011;5982;37.494;-8.758;2022-10-13T07:51:03;837.67;;;784.40;;
11845;SDS011;5982;37.494;-8.758;2022-10-13T07:53:33;860.30;;;806.55;;
11845;SDS011;5982;37.494;-8.758;2022-10-13T07:56:04;871.37;;;816.87;;
11845;SDS011;5982;37.494;-8.758;2022-10-13T07:58:35;876.83;;;822.43;;
11845;SDS011;5982;37.494;-8.758;2022-10-13T08:01:05;884.45;;;829.80;;
11845;SDS011;5982;37.494;-8.758;2022-10-13T08:03:34;885.53;;;831.03;;
11845;SDS011;5982;37.494;-8.758;2022-10-13T08:06:03;901.37;;;846.03;;
11845;SDS011;5982;37.494;-8.758;2022-10-13T08:08:32;910.25;;;855.03;;
11845;SDS011;5982;37.494;-8.758;2022-10-13T08:11:02;903.83;;;848.88;;
11845;SDS011;5982;37.494;-8.758;2022-10-13T08:13:33;905.25;;;850.10;;
11845;SDS011;5982;37.494;-8.758;2022-10-13T08:16:02;908.25;;;853.20;;
11845;SDS011;5982;37.494;-8.758;2022-10-13T08:18:31;908.03;;;852.77;;
11845;SDS011;5982;37.494;-8.758;2022-10-13T08:20:59;903.70;;;848.80;;
11845;SDS011;5982;37.494;-8.758;2022-10-13T08:23:29;904.58;;;849.40;;
11845;SDS011;5982;37.494;-8.758;2022-10-13T08:25:57;901.38;;;846.15;;
11845;SDS011;5982;37.494;-8.758;2022-10-13T08:28:27;904.45;;;849.30;;
11845;SDS011;5982;37.494;-8.758;2022-10-13T08:30:56;911.90;;;856.20;;
11845;SDS011;5982;37.494;-8.758;2022-10-13T08:33:24;920.15;;;864.28;;
11845;SDS011;5982;37.494;-8.758;2022-10-13T08:35:52;929.35;;;873.03;;
11845;SDS011;5982;37.494;-8.758;2022-10-13T08:38:21;930.03;;;873.80;;
11845;SDS011;5982;37.494;-8.758;2022-10-13T08:40:49;938.90;;;882.42;;
11845;SDS011;5982;37.494;-8.758;2022-10-13T08:43:18;944.42;;;887.83;;
11845;SDS011;5982;37.494;-8.758;2022-10-13T08:45:50;953.45;;;896.67;;
11845;SDS011;5982;37.494;-8.758;2022-10-13T08:48:24;951.72;;;894.85;;
11845;SDS011;5982;37.494;-8.758;2022-10-13T08:50:58;957.13;;;899.85;;
11845;SDS011;5982;37.494;-8.758;2022-10-13T08:53:29;962.95;;;905.67;;
11845;SDS011;5982;37.494;-8.758;2022-10-13T08:56:02;961.87;;;904.67;;
11845;SDS011;5982;37.494;-8.758;2022-10-13T08:58:36;961.75;;;904.47;;
11845;SDS011;5982;37.494;-8.758;2022-10-13T09:01:12;967.53;;;910.13;;
11845;SDS011;5982;37.494;-8.758;2022-10-13T09:03:46;978.58;;;920.63;;
11845;SDS011;5982;37.494;-8.758;2022-10-13T09:06:20;979.33;;;921.50;;
11845;SDS011;5982;37.494;-8.758;2022-10-13T09:08:56;987.20;;;929.03;;
11845;SDS011;5982;37.494;-8.758;2022-10-13T09:11:27;993.85;;;935.55;;
11845;SDS011;5982;37.494;-8.758;2022-10-13T09:13:58;989.60;;;931.58;;
11845;SDS011;5982;37.494;-8.758;2022-10-13T09:16:32;993.90;;;935.80;;
11845;SDS011;5982;37.494;-8.758;2022-10-13T09:19:13;989.75;;;931.53;;
11845;SDS011;5982;37.494;-8.758;2022-10-13T09:21:48;998.33;;;939.92;;
11845;SDS011;5982;37.494;-8.758;2022-10-13T09:24:18;1005.03;;;945.92;;
11845;SDS011;5982;37.494;-8.758;2022-10-13T09:26:49;1008.65;;;949.67;;
11845;SDS011;5982;37.494;-8.758;2022-10-13T09:29:29;1006.65;;;947.55;;
11845;SDS011;5982;37.494;-8.758;2022-10-13T09:32:08;1002.42;;;943.38;;
11845;SDS011;5982;37.494;-8.758;2022-10-13T09:34:42;1009.13;;;950.20;;
11845;SDS011;5982;37.494;-8.758;2022-10-13T09:37:21;1015.67;;;956.65;;
11845;SDS011;5982;37.494;-8.758;2022-10-13T09:40:00;1014.08;;;955.38;;
11845;SDS011;5982;37.494;-8.758;2022-10-13T09:42:39;1012.92;;;954.15;;
11845;SDS011;5982;37.494;-8.758;2022-10-13T09:45:11;1003.63;;;945.30;;
11845;SDS011;5982;37.494;-8.758;2022-10-13T09:47:48;1008.80;;;949.83;;
11845;SDS011;5982;37.494;-8.758;2022-10-13T09:50:19;1008.60;;;949.72;;
11845;SDS011;5982;37.494;-8.758;2022-10-13T09:52:50;1012.10;;;953.00;;
11845;SDS011;5982;37.494;-8.758;2022-10-13T09:55:26;1007.45;;;948.50;;
11845;SDS011;5982;37.494;-8.758;2022-10-13T09:57:59;1008.40;;;949.50;;
11845;SDS011;5982;37.494;-8.758;2022-10-13T10:00:32;1006.42;;;947.83;;
11845;SDS011;5982;37.494;-8.758;2022-10-13T10:03:03;1010.25;;;951.38;;
11845;SDS011;5982;37.494;-8.758;2022-10-13T10:05:40;1010.63;;;951.50;;
11845;SDS011;5982;37.494;-8.758;2022-10-13T10:08:16;1010.97;;;951.42;;
11845;SDS011;5982;37.494;-8.758;2022-10-13T10:10:48;1020.50;;;960.58;;
11845;SDS011;5982;37.494;-8.758;2022-10-13T10:13:17;1023.10;;;962.90;;
11845;SDS011;5982;37.494;-8.758;2022-10-13T10:15:48;1026.22;;;966.53;;
11845;SDS011;5982;37.494;-8.758;2022-10-13T10:18:26;1024.60;;;964.80;;
11845;SDS011;5982;37.494;-8.758;2022-10-13T10:21:05;1027.20;;;967.00;;
11845;SDS011;5982;37.494;-8.758;2022-10-13T10:23:41;1024.80;;;965.10;;
11845;SDS011;5982;37.494;-8.758;2022-10-13T10:26:16;1029.27;;;969.27;;
11845;SDS011;5982;37.494;-8.758;2022-10-13T10:28:50;1022.97;;;963.25;;
11845;SDS011;5982;37.494;-8.758;2022-10-13T10:31:49;1027.47;;;967.33;;
11845;SDS011;5982;37.494;-8.758;2022-10-13T10:34:34;1023.27;;;963.70;;
11845;SDS011;5982;37.494;-8.758;2022-10-13T10:37:12;1017.80;;;958.60;;
11845;SDS011;5982;37.494;-8.758;2022-10-13T10:39:48;1027.82;;;968.03;;
11845;SDS011;5982;37.494;-8.758;2022-10-13T10:45:34;1026.25;;;966.65;;
11845;SDS011;5982;37.494;-8.758;2022-10-13T10:48:07;1024.55;;;963.88;;
11845;SDS011;5982;37.494;-8.758;2022-10-13T10:50:52;1031.45;;;969.67;;
11845;SDS011;5982;37.494;-8.758;2022-10-13T10:53:21;1025.97;;;966.25;;
11845;SDS011;5982;37.494;-8.758;2022-10-13T10:56:01;1021.75;;;962.15;;
11845;SDS011;5982;37.494;-8.758;2022-10-13T10:58:38;1023.60;;;963.85;;
11845;SDS011;5982;37.494;-8.758;2022-10-13T11:01:19;1018.80;;;959.57;;
11845;SDS011;5982;37.494;-8.758;2022-10-13T11:03:58;1016.72;;;956.95;;
11845;SDS011;5982;37.494;-8.758;2022-10-13T11:07:02;1013.35;;;954.00;;
11845;SDS011;5982;37.494;-8.758;2022-10-13T11:15:51;1016.27;;;956.67;;
11845;SDS011;5982;37.494;-8.758;2022-10-13T11:24:49;1021.00;;;961.78;;
11845;SDS011;5982;37.494;-8.758;2022-10-13T11:27:39;1020.58;;;961.28;;
11845;SDS011;5982;37.494;-8.758;2022-10-13T11:36:29;1026.43;;;966.70;;
11845;SDS011;5982;37.494;-8.758;2022-10-13T11:42:38;1031.40;;;971.53;;
11845;SDS011;5982;37.494;-8.758;2022-10-13T11:48:40;1033.65;;;973.35;;
11845;SDS011;5982;37.494;-8.758;2022-10-13T11:51:41;1027.25;;;967.50;;
11845;SDS011;5982;37.494;-8.758;2022-10-13T11:54:35;1028.70;;;968.80;;
11845;SDS011;5982;37.494;-8.758;2022-10-13T11:57:17;1029.93;;;970.40;;
11845;SDS011;5982;37.494;-8.758;2022-10-13T11:59:48;1024.90;;;965.55;;
11845;SDS011;5982;37.494;-8.758;2022-10-13T12:02:20;1028.80;;;969.25;;
11845;SDS011;5982;37.494;-8.758;2022-10-13T12:05:01;1032.68;;;973.08;;
11845;SDS011;5982;37.494;-8.758;2022-10-13T12:07:34;1029.47;;;969.55;;
11845;SDS011;5982;37.494;-8.758;2022-10-13T12:10:06;1028.97;;;969.08;;
11845;SDS011;5982;37.494;-8.758;2022-10-13T12:12:46;1038.10;;;978.15;;
11845;SDS011;5982;37.494;-8.758;2022-10-13T12:15:26;1033.75;;;973.85;;
11845;SDS011;5982;37.494;-8.758;2022-10-13T12:17:59;1030.55;;;970.85;;
11845;SDS011;5982;37.494;-8.758;2022-10-13T12:20:29;1036.50;;;976.20;;
11845;SDS011;5982;37.494;-8.758;2022-10-13T12:22:58;1040.05;;;979.85;;
11845;SDS011;5982;37.494;-8.758;2022-10-13T12:25:27;1039.13;;;978.53;;
11845;SDS011;5982;37.494;-8.758;2022-10-13T12:27:59;1040.28;;;980.13;;
11845;SDS011;5982;37.494;-8.758;2022-10-13T12:30:28;1051.35;;;990.55;;
11845;SDS011;5982;37.494;-8.758;2022-10-13T12:33:00;1054.63;;;993.90;;
11845;SDS011;5982;37.494;-8.758;2022-10-13T12:35:31;1044.45;;;984.05;;
11845;SDS011;5982;37.494;-8.758;2022-10-13T12:38:00;1051.68;;;990.70;;
11845;SDS011;5982;37.494;-8.758;2022-10-13T12:40:32;1045.90;;;985.30;;
11845;SDS011;5982;37.494;-8.758;2022-10-13T12:43:03;1050.13;;;989.45;;
11845;SDS011;5982;37.494;-8.758;2022-10-13T12:45:32;1056.23;;;995.33;;
11845;SDS011;5982;37.494;-8.758;2022-10-13T12:48:01;1055.95;;;995.20;;
11845;SDS011;5982;37.494;-8.758;2022-10-13T12:50:36;1060.82;;;999.53;;
11845;SDS011;5982;37.494;-8.758;2022-10-13T12:53:13;1056.00;;;995.40;;
11845;SDS011;5982;37.494;-8.758;2022-10-13T12:55:48;1060.40;;;999.27;;
11845;SDS011;5982;37.494;-8.758;2022-10-13T12:58:25;1062.20;;;999.90;;
11845;SDS011;5982;37.494;-8.758;2022-10-13T13:01:05;1061.72;;;999.90;;
11845;SDS011;5982;37.494;-8.758;2022-10-13T13:03:44;1066.72;;;999.90;;
11845;SDS011;5982;37.494;-8.758;2022-10-13T13:06:22;1060.47;;;999.40;;
11845;SDS011;5982;37.494;-8.758;2022-10-13T13:12:18;1060.88;;;999.90;;
11845;SDS011;5982;37.494;-8.758;2022-10-13T13:14:54;1067.83;;;999.90;;
11845;SDS011;5982;37.494;-8.758;2022-10-13T13:17:27;1065.65;;;999.90;;
11845;SDS011;5982;37.494;-8.758;2022-10-13T13:19:58;1060.07;;;998.97;;
11845;SDS011;5982;37.494;-8.758;2022-10-13T13:22:26;1055.97;;;995.28;;
11845;SDS011;5982;37.494;-8.758;2022-10-13T13:24:54;1062.10;;;999.90;;
11845;SDS011;5982;37.494;-8.758;2022-10-13T13:27:23;1051.90;;;991.35;;
11845;SDS011;5982;37.494;-8.758;2022-10-13T13:29:55;1050.78;;;990.00;;
11845;SDS011;5982;37.494;-8.758;2022-10-13T13:32:24;1054.65;;;993.85;;
11845;SDS011;5982;37.494;-8.758;2022-10-13T13:34:55;1047.88;;;987.58;;
11845;SDS011;5982;37.494;-8.758;2022-10-13T13:37:24;1046.45;;;986.05;;
11845;SDS011;5982;37.494;-8.758;2022-10-13T13:39:56;1048.35;;;988.05;;
11845;SDS011;5982;37.494;-8.758;2022-10-13T13:42:26;1051.63;;;990.78;;
11845;SDS011;5982;37.494;-8.758;2022-10-13T13:44:56;1049.80;;;989.37;;
11845;SDS011;5982;37.494;-8.758;2022-10-13T13:47:25;1045.88;;;985.45;;
11845;SDS011;5982;37.494;-8.758;2022-10-13T13:49:54;1049.32;;;988.65;;
11845;SDS011;5982;37.494;-8.758;2022-10-13T13:52:23;1045.43;;;985.17;;
11845;SDS011;5982;37.494;-8.758;2022-10-13T13:54:52;1057.00;;;995.95;;
11845;SDS011;5982;37.494;-8.758;2022-10-13T13:57:21;1055.22;;;994.40;;
11845;SDS011;5982;37.494;-8.758;2022-10-13T13:59:49;1053.43;;;992.72;;
11845;SDS011;5982;37.494;-8.758;2022-10-13T14:02:19;1057.72;;;996.92;;
11845;SDS011;5982;37.494;-8.758;2022-10-13T14:04:48;1059.13;;;998.30;;
11845;SDS011;5982;37.494;-8.758;2022-10-13T14:07:17;1060.40;;;999.60;;
11845;SDS011;5982;37.494;-8.758;2022-10-13T14:09:46;1056.90;;;995.92;;
11845;SDS011;5982;37.494;-8.758;2022-10-13T14:12:14;1059.32;;;998.42;;
11845;SDS011;5982;37.494;-8.758;2022-10-13T14:14:42;1046.63;;;986.30;;
11845;SDS011;5982;37.494;-8.758;2022-10-13T14:17:10;1049.13;;;988.63;;
11845;SDS011;5982;37.494;-8.758;2022-10-13T14:19:40;1049.13;;;988.80;;
11845;SDS011;5982;37.494;-8.758;2022-10-13T14:22:08;1048.22;;;987.70;;
11845;SDS011;5982;37.494;-8.758;2022-10-13T14:24:36;1043.10;;;983.03;;
11845;SDS011;5982;37.494;-8.758;2022-10-13T14:27:05;1046.82;;;986.63;;
11845;SDS011;5982;37.494;-8.758;2022-10-13T14:29:33;1042.30;;;982.35;;
11845;SDS011;5982;37.494;-8.758;2022-10-13T14:32:02;1044.60;;;984.20;;
11845;SDS011;5982;37.494;-8.758;2022-10-13T14:34:30;1041.67;;;981.90;;
11845;SDS011;5982;37.494;-8.758;2022-10-13T14:37:00;1043.93;;;983.72;;
11845;SDS011;5982;37.494;-8.758;2022-10-13T14:39:28;1043.13;;;983.27;;
11845;SDS011;5982;37.494;-8.758;2022-10-13T14:41:56;1045.82;;;985.50;;
11845;SDS011;5982;37.494;-8.758;2022-10-13T14:44:24;1046.93;;;986.70;;
11845;SDS011;5982;37.494;-8.758;2022-10-13T14:46:53;1050.68;;;990.17;;
11845;SDS011;5982;37.494;-8.758;2022-10-13T14:49:21;1047.13;;;986.78;;
11845;SDS011;5982;37.494;-8.758;2022-10-13T14:51:49;1048.73;;;988.27;;